createdAt,value
2018-06-29T00:00:46.474Z,99936.53
2018-06-29T00:03:14.081Z,99935.38
2018-06-29T00:05:41.787Z,99928.16
2018-06-29T00:08:09.479Z,99936.17
2018-06-29T00:10:37.779Z,99942.96
2018-06-29T00:13:05.494Z,99933.40
2018-06-29T00:15:33.215Z,99933.03
2018-06-29T00:18:02.017Z,99930.44
2018-06-29T00:20:29.625Z,99922.58
2018-06-29T00:22:57.367Z,99926.69
2018-06-29T00:25:25.058Z,99927.19
2018-06-29T00:27:52.822Z,99921.66
2018-06-29T00:32:47.648Z,99914.66
2018-06-29T00:35:15.374Z,99906.67
2018-06-29T00:37:43.080Z,99913.56
2018-06-29T00:40:10.840Z,99918.52
2018-06-29T00:42:38.499Z,99920.89
2018-06-29T00:45:06.202Z,99922.26
2018-06-29T00:47:33.817Z,99926.47
2018-06-29T00:50:01.507Z,99928.25
2018-06-29T00:52:29.133Z,99932.75
2018-06-29T00:54:56.899Z,99925.58
2018-06-29T00:57:24.605Z,99921.19
2018-06-29T00:59:52.337Z,99931.03
2018-06-29T01:02:20.353Z,99919.73
2018-06-29T01:04:48.073Z,99921.30
2018-06-29T01:07:15.873Z,99922.15
2018-06-29T01:09:43.681Z,99919.66
2018-06-29T01:12:11.475Z,99921.14
2018-06-29T01:14:39.243Z,99921.74
2018-06-29T01:17:06.975Z,99925.19
2018-06-29T01:19:34.697Z,99922.91
2018-06-29T01:22:02.392Z,99920.72
2018-06-29T01:24:30.032Z,99925.66
2018-06-29T01:26:58.456Z,99916.80
2018-06-29T01:29:26.050Z,99910.97
2018-06-29T01:31:53.764Z,99904.72
2018-06-29T01:34:21.481Z,99915.47
2018-06-29T01:36:49.194Z,99919.09
2018-06-29T01:39:16.985Z,99915.73
2018-06-29T01:41:44.662Z,99909.90
2018-06-29T01:44:12.279Z,99914.09
2018-06-29T01:46:39.964Z,99906.03
2018-06-29T01:49:07.580Z,99910.34
2018-06-29T01:51:35.195Z,99905.45
2018-06-29T01:54:02.805Z,99908.95
2018-06-29T01:56:30.495Z,99906.16
2018-06-29T01:58:58.180Z,99903.84
2018-06-29T02:01:25.793Z,99904.95
2018-06-29T02:03:53.467Z,99909.51
2018-06-29T02:06:21.162Z,99899.47
2018-06-29T02:08:48.857Z,99890.19
2018-06-29T02:11:16.513Z,99890.48
2018-06-29T02:13:44.158Z,99893.11
2018-06-29T02:16:11.813Z,99886.97
2018-06-29T02:18:39.439Z,99885.64
2018-06-29T02:21:07.059Z,99882.38
2018-06-29T02:23:34.776Z,99883.34
2018-06-29T02:26:02.645Z,99879.83
2018-06-29T02:28:30.408Z,99885.02
2018-06-29T02:30:58.088Z,99879.32
2018-06-29T02:33:25.845Z,99878.23
2018-06-29T02:35:53.512Z,99882.72
2018-06-29T02:38:21.283Z,99881.05
2018-06-29T02:40:48.890Z,99889.37
2018-06-29T02:43:17.573Z,99886.70
2018-06-29T02:45:45.279Z,99880.94
2018-06-29T02:48:13.056Z,99872.39
2018-06-29T02:50:40.742Z,99875.34
2018-06-29T02:53:08.446Z,99879.06
2018-06-29T02:55:36.151Z,99873.17
2018-06-29T02:58:03.806Z,99868.26
2018-06-29T03:00:31.573Z,99873.07
2018-06-29T03:02:59.333Z,99875.62
2018-06-29T03:05:27.038Z,99876.33
2018-06-29T03:07:54.759Z,99880.81
2018-06-29T03:10:22.562Z,99880.90
2018-06-29T03:12:50.289Z,99874.95
2018-06-29T03:15:17.953Z,99872.59
2018-06-29T03:17:45.777Z,99885.19
2018-06-29T03:20:13.433Z,99891.75
2018-06-29T03:22:41.148Z,99893.63
2018-06-29T03:25:09.071Z,99895.91
2018-06-29T03:27:36.673Z,99886.00
2018-06-29T03:30:04.953Z,99885.64
2018-06-29T03:32:45.671Z,99890.20
2018-06-29T03:35:13.625Z,99890.69
2018-06-29T03:37:41.395Z,99884.88
2018-06-29T03:40:09.004Z,99879.85
2018-06-29T03:42:36.720Z,99882.77
2018-06-29T03:45:04.451Z,99887.97
2018-06-29T03:47:32.237Z,99884.21
2018-06-29T03:49:59.944Z,99878.82
2018-06-29T03:52:27.645Z,99882.90
2018-06-29T03:54:55.404Z,99874.00
2018-06-29T03:57:23.179Z,99872.61
2018-06-29T03:59:50.846Z,99885.34
2018-06-29T04:02:18.524Z,99884.51
2018-06-29T04:04:46.268Z,99880.85
2018-06-29T04:07:13.963Z,99874.16
2018-06-29T04:09:41.699Z,99879.70
2018-06-29T04:12:09.413Z,99878.36
2018-06-29T04:14:37.020Z,99886.47
2018-06-29T04:17:04.736Z,99876.58
2018-06-29T04:19:32.412Z,99875.11
2018-06-29T04:22:00.052Z,99872.95
2018-06-29T04:24:27.752Z,99876.84
2018-06-29T04:26:55.489Z,99878.09
2018-06-29T04:29:23.186Z,99881.09
2018-06-29T04:31:50.919Z,99876.03
2018-06-29T04:34:18.603Z,99878.08
2018-06-29T04:36:46.330Z,99884.55
2018-06-29T04:39:14.118Z,99889.48
2018-06-29T04:41:41.800Z,99884.79
2018-06-29T04:44:09.456Z,99875.16
2018-06-29T04:46:37.196Z,99881.39
2018-06-29T04:49:05.103Z,99878.89
2018-06-29T04:51:32.811Z,99879.90
2018-06-29T04:54:00.457Z,99881.37
2018-06-29T04:56:28.085Z,99876.30
2018-06-29T04:58:55.703Z,99883.55
2018-06-29T05:01:23.497Z,99879.07
2018-06-29T05:03:51.637Z,99884.03
2018-06-29T05:06:19.297Z,99882.00
2018-06-29T05:08:47.370Z,99887.30
2018-06-29T05:11:15.093Z,99888.77
2018-06-29T05:13:42.793Z,99899.94
2018-06-29T05:16:10.489Z,99899.50
2018-06-29T05:18:38.209Z,99898.84
2018-06-29T05:21:12.665Z,99900.79
2018-06-29T05:23:40.350Z,99891.64
2018-06-29T05:26:08.073Z,99895.27
2018-06-29T05:28:35.690Z,99901.96
2018-06-29T05:31:03.357Z,99908.78
2018-06-29T05:33:31.023Z,99909.32
2018-06-29T05:35:58.730Z,99906.32
2018-06-29T05:38:27.696Z,99907.62
2018-06-29T05:40:55.359Z,99919.52
2018-06-29T05:43:23.961Z,99915.81
2018-06-29T05:45:51.629Z,99909.53
2018-06-29T05:48:19.287Z,99909.22
2018-06-29T05:50:46.914Z,99907.18
2018-06-29T05:53:14.662Z,99905.66
2018-06-29T05:55:42.404Z,99910.66
2018-06-29T05:58:10.077Z,99906.66
2018-06-29T06:00:38.477Z,99916.84
2018-06-29T06:03:06.823Z,99917.35
2018-06-29T06:05:34.435Z,99917.47
2018-06-29T06:08:02.116Z,99924.09
2018-06-29T06:10:29.829Z,99924.45
2018-06-29T06:12:57.551Z,99923.27
2018-06-29T06:15:25.303Z,99923.89
2018-06-29T06:17:52.997Z,99923.86
2018-06-29T06:20:20.728Z,99927.55
2018-06-29T06:22:48.395Z,99924.25
2018-06-29T06:25:16.159Z,99927.79
2018-06-29T06:27:43.884Z,99926.27
2018-06-29T06:30:11.595Z,99926.09
2018-06-29T06:32:39.561Z,99932.86
2018-06-29T06:35:07.217Z,99925.30
2018-06-29T06:37:34.831Z,99927.16
2018-06-29T06:40:02.455Z,99926.45
2018-06-29T06:42:30.132Z,99925.17
2018-06-29T06:44:57.717Z,99931.05
2018-06-29T06:47:25.405Z,99928.06
2018-06-29T06:49:53.036Z,99922.25
2018-06-29T06:52:20.686Z,99928.38
2018-06-29T06:54:48.592Z,99933.55
2018-06-29T06:57:16.192Z,99935.10
2018-06-29T06:59:43.795Z,99929.77
2018-06-29T07:02:11.404Z,99934.66
2018-06-29T07:04:39.121Z,99932.31
2018-06-29T07:07:06.776Z,99929.45
2018-06-29T07:09:34.457Z,99933.00
2018-06-29T07:12:02.054Z,99935.98
2018-06-29T07:14:29.693Z,99946.05
2018-06-29T07:16:57.338Z,99937.83
2018-06-29T07:19:25.003Z,99934.69
2018-06-29T07:21:52.849Z,99935.42
2018-06-29T07:24:20.578Z,99933.05
2018-06-29T07:26:48.325Z,99939.66
2018-06-29T07:29:16.155Z,99943.38
2018-06-29T07:31:43.766Z,99951.36
2018-06-29T07:34:11.469Z,99942.67
2018-06-29T07:36:39.100Z,99938.45
2018-06-29T07:39:07.735Z,99939.30
2018-06-29T07:41:35.365Z,99924.31
2018-06-29T07:44:03.964Z,99929.47
2018-06-29T07:46:31.650Z,99927.20
2018-06-29T07:48:59.261Z,99926.30
2018-06-29T07:51:26.920Z,99919.05
2018-06-29T07:53:54.628Z,99925.34
2018-06-29T07:56:22.375Z,99915.23
2018-06-29T07:58:50.521Z,99913.66
2018-06-29T08:01:18.106Z,99925.36
2018-06-29T08:03:45.858Z,99906.76
2018-06-29T08:06:13.438Z,99903.56
2018-06-29T08:08:41.135Z,99899.60
2018-06-29T08:11:08.788Z,99899.27
2018-06-29T08:13:36.451Z,99892.24
2018-06-29T08:16:04.625Z,99894.37
2018-06-29T08:18:32.243Z,99894.03
2018-06-29T08:20:59.879Z,99898.44
2018-06-29T08:23:30.517Z,99896.84
2018-06-29T08:26:15.766Z,99903.16
2018-06-29T08:28:43.394Z,99891.86
2018-06-29T08:31:11.256Z,99888.68
2018-06-29T08:33:39.200Z,99888.01
2018-06-29T08:36:07.178Z,99888.13
2018-06-29T08:38:35.424Z,99888.16
2018-06-29T08:41:03.181Z,99886.30
2018-06-29T08:43:30.918Z,99876.80
2018-06-29T08:45:58.619Z,99880.02
2018-06-29T08:48:26.291Z,99870.44
2018-06-29T08:50:54.098Z,99863.89
2018-06-29T08:53:21.796Z,99871.17
2018-06-29T08:55:49.509Z,99871.95
2018-06-29T08:58:17.419Z,99872.09
2018-06-29T09:00:45.041Z,99869.77
2018-06-29T09:03:12.710Z,99871.05
2018-06-29T09:05:40.449Z,99872.20
2018-06-29T09:08:08.587Z,99861.06
2018-06-29T09:10:36.324Z,99866.83
2018-06-29T09:13:03.981Z,99863.13
2018-06-29T09:15:31.619Z,99862.45
2018-06-29T09:17:59.331Z,99857.73
2018-06-29T09:20:27.096Z,99859.80
2018-06-29T09:22:54.783Z,99859.05
2018-06-29T09:25:22.868Z,99854.58
2018-06-29T09:27:50.589Z,99856.40
2018-06-29T09:30:18.280Z,99853.63
2018-06-29T09:32:46.001Z,99843.37
2018-06-29T09:35:13.658Z,99841.66
2018-06-29T09:37:41.454Z,99843.83
2018-06-29T09:40:09.136Z,99837.05
2018-06-29T09:42:37.006Z,99842.48
2018-06-29T09:45:04.971Z,99832.24
2018-06-29T09:47:32.595Z,99837.02
2018-06-29T09:50:00.282Z,99836.50
2018-06-29T09:52:27.929Z,99837.59
2018-06-29T09:54:55.680Z,99837.84
2018-06-29T09:57:23.322Z,99826.55
2018-06-29T09:59:51.154Z,99828.94
2018-06-29T10:02:18.810Z,99827.19
2018-06-29T10:04:46.736Z,99826.54
2018-06-29T10:07:14.437Z,99819.53
2018-06-29T10:09:42.159Z,99819.55
2018-06-29T10:12:09.853Z,99817.96
2018-06-29T10:14:37.511Z,99810.84
2018-06-29T10:17:05.215Z,99817.37
2018-06-29T10:19:33.002Z,99812.19
2018-06-29T10:22:00.613Z,99810.31
2018-06-29T10:24:28.286Z,99804.39
2018-06-29T10:26:55.969Z,99805.73
2018-06-29T10:29:23.651Z,99797.42
2018-06-29T10:31:51.315Z,99798.64
2018-06-29T10:34:18.972Z,99802.15
2018-06-29T10:36:46.697Z,99803.05
2018-06-29T10:39:15.274Z,99797.97
2018-06-29T10:41:43.501Z,99808.48
2018-06-29T10:44:11.245Z,99798.23
2018-06-29T10:46:39.887Z,99803.17
2018-06-29T10:49:07.622Z,99801.41
2018-06-29T10:51:35.322Z,99790.28
2018-06-29T10:54:03.288Z,99789.80
2018-06-29T10:56:31.016Z,99795.16
2018-06-29T10:58:58.784Z,99784.70
2018-06-29T11:01:26.540Z,99784.41
2018-06-29T11:03:54.404Z,99789.68
2018-06-29T11:06:22.049Z,99788.94
2018-06-29T11:08:49.765Z,99789.80
2018-06-29T11:11:17.522Z,99786.77
2018-06-29T11:13:45.720Z,99784.12
2018-06-29T11:16:13.448Z,99779.27
2018-06-29T11:18:41.203Z,99778.13
2018-06-29T11:21:08.889Z,99780.86
2018-06-29T11:23:36.647Z,99790.85
2018-06-29T11:26:04.542Z,99770.47
2018-06-29T11:28:32.551Z,99761.55
2018-06-29T11:31:00.240Z,99760.54
2018-06-29T11:33:27.877Z,99752.22
2018-06-29T11:35:55.767Z,99756.14
2018-06-29T11:38:23.383Z,99749.19
2018-06-29T11:40:51.047Z,99754.41
2018-06-29T11:43:18.797Z,99755.24
2018-06-29T11:45:46.611Z,99748.16
2018-06-29T11:48:14.343Z,99751.05
2018-06-29T11:50:42.079Z,99742.22
2018-06-29T11:53:09.833Z,99748.56
2018-06-29T11:55:37.509Z,99736.73
2018-06-29T11:58:05.659Z,99740.44
2018-06-29T12:00:33.326Z,99731.50
2018-06-29T12:03:01.004Z,99732.88
2018-06-29T12:05:28.629Z,99736.52
2018-06-29T12:07:56.272Z,99733.23
2018-06-29T12:10:24.019Z,99726.95
2018-06-29T12:12:51.736Z,99729.97
2018-06-29T12:15:19.492Z,99728.82
2018-06-29T12:17:47.307Z,99722.17
2018-06-29T12:20:15.023Z,99723.16
2018-06-29T12:22:42.848Z,99729.41
2018-06-29T12:25:10.622Z,99731.95
2018-06-29T12:27:38.371Z,99726.94
2018-06-29T12:30:06.062Z,99717.64
2018-06-29T12:32:33.921Z,99714.13
2018-06-29T12:35:02.278Z,99722.88
2018-06-29T12:37:29.983Z,99715.89
2018-06-29T12:39:57.754Z,99704.80
2018-06-29T12:42:25.513Z,99709.44
2018-06-29T12:44:53.224Z,99713.54
2018-06-29T12:47:20.950Z,99697.09
2018-06-29T12:49:48.705Z,99700.33
2018-06-29T12:52:16.443Z,99692.57
2018-06-29T12:54:44.261Z,99689.77
2018-06-29T12:57:12.069Z,99692.51
2018-06-29T12:59:39.825Z,99691.02
2018-06-29T13:02:07.557Z,99690.42
2018-06-29T13:04:35.275Z,99696.66
2018-06-29T13:07:03.033Z,99694.48
2018-06-29T13:09:30.626Z,99688.70
2018-06-29T13:11:58.570Z,99669.56
2018-06-29T13:14:26.300Z,99677.02
2018-06-29T13:16:53.975Z,99673.62
2018-06-29T13:19:21.764Z,99664.27
2018-06-29T13:21:49.491Z,99655.63
2018-06-29T13:24:17.158Z,99648.27
2018-06-29T13:26:45.054Z,99653.76
2018-06-29T13:29:12.760Z,99645.06
2018-06-29T13:31:40.557Z,99643.57
2018-06-29T13:34:08.243Z,99636.67
2018-06-29T13:36:36.033Z,99639.80
2018-06-29T13:39:07.152Z,99643.45
2018-06-29T13:41:34.897Z,99642.69
2018-06-29T13:44:02.694Z,99649.66
2018-06-29T13:46:30.503Z,99641.48
2018-06-29T13:48:58.261Z,99640.66
2018-06-29T13:51:25.921Z,99626.69
2018-06-29T13:53:53.597Z,99625.36
2018-06-29T13:56:21.298Z,99619.63
2018-06-29T13:58:50.011Z,99619.73
2018-06-29T14:01:17.645Z,99609.92
2018-06-29T14:03:45.330Z,99608.38
2018-06-29T14:06:13.015Z,99606.58
2018-06-29T14:08:41.687Z,99599.30
2018-06-29T14:11:09.372Z,99588.87
2018-06-29T14:13:37.061Z,99592.52
2018-06-29T14:16:04.875Z,99587.42
2018-06-29T14:18:32.522Z,99580.94
2018-06-29T14:21:00.254Z,99590.69
2018-06-29T14:23:27.970Z,99584.22
2018-06-29T14:25:55.614Z,99586.88
2018-06-29T14:28:24.276Z,99575.48
2018-06-29T14:30:51.914Z,99568.73
2018-06-29T14:33:19.692Z,99569.16
2018-06-29T14:35:47.366Z,99558.08
2018-06-29T14:38:15.050Z,99550.70
2018-06-29T14:40:42.730Z,99552.63
2018-06-29T14:43:10.402Z,99545.96
2018-06-29T14:45:38.105Z,99533.81
2018-06-29T14:48:05.828Z,99537.63
2018-06-29T14:50:33.543Z,99534.91
2018-06-29T14:53:01.180Z,99534.20
2018-06-29T14:55:28.963Z,99523.13
2018-06-29T14:57:56.709Z,99526.53
2018-06-29T15:00:24.371Z,99531.23
2018-06-29T15:02:52.080Z,99536.36
2018-06-29T15:05:19.735Z,99529.03
2018-06-29T15:07:47.424Z,99527.95
2018-06-29T15:10:15.205Z,99546.69
2018-06-29T15:12:42.833Z,99528.29
2018-06-29T15:15:10.489Z,99533.23
2018-06-29T15:17:38.227Z,99527.78
2018-06-29T15:20:06.907Z,99532.42
2018-06-29T15:22:34.575Z,99539.91
2018-06-29T15:25:02.270Z,99527.86
2018-06-29T15:27:30.013Z,99535.78
2018-06-29T15:29:57.746Z,99531.61
2018-06-29T15:32:25.439Z,99522.67
2018-06-29T15:34:53.109Z,99522.77
2018-06-29T15:37:20.789Z,99516.09
2018-06-29T15:39:48.478Z,99528.44
2018-06-29T15:42:16.166Z,99521.63
2018-06-29T15:44:43.850Z,99526.22
2018-06-29T15:47:11.692Z,99543.13
2018-06-29T15:49:39.596Z,99526.45
2018-06-29T15:52:07.242Z,99527.58
2018-06-29T15:54:35.037Z,99513.47
2018-06-29T15:57:02.711Z,99518.91
2018-06-29T15:59:30.388Z,99517.96
2018-06-29T16:01:58.179Z,99505.67
2018-06-29T16:04:25.925Z,99507.01
2018-06-29T16:06:53.618Z,99513.73
2018-06-29T16:09:21.298Z,99513.78
2018-06-29T16:11:49.002Z,99512.22
2018-06-29T16:14:16.766Z,99524.57
2018-06-29T16:16:45.086Z,99524.20
2018-06-29T16:19:12.823Z,99513.37
2018-06-29T16:21:40.664Z,99520.23
2018-06-29T16:24:08.261Z,99526.53
2018-06-29T16:26:35.893Z,99513.70
2018-06-29T16:29:03.675Z,99528.83
2018-06-29T16:31:31.424Z,99513.20
2018-06-29T16:33:59.173Z,99515.41
2018-06-29T16:36:26.849Z,99503.63
2018-06-29T16:38:54.577Z,99495.91
2018-06-29T16:41:22.277Z,99486.30
2018-06-29T16:43:49.895Z,99482.28
2018-06-29T16:46:17.503Z,99485.75
2018-06-29T16:48:45.132Z,99484.85
2018-06-29T16:51:12.856Z,99482.02
2018-06-29T16:53:40.506Z,99479.39
2018-06-29T16:56:08.345Z,99480.19
2018-06-29T16:58:36.024Z,99481.53
2018-06-29T17:01:03.765Z,99477.59
2018-06-29T17:03:31.493Z,99482.39
2018-06-29T17:05:59.178Z,99490.75
2018-06-29T17:08:26.854Z,99484.73
2018-06-29T17:10:54.669Z,99485.14
2018-06-29T17:13:22.370Z,99486.95
2018-06-29T17:15:50.127Z,99496.58
2018-06-29T17:18:17.763Z,99497.43
2018-06-29T17:20:45.479Z,99492.55
2018-06-29T17:23:13.231Z,99497.86
2018-06-29T17:25:40.901Z,99492.39
2018-06-29T17:28:08.623Z,99493.73
2018-06-29T17:30:36.319Z,99496.95
2018-06-29T17:33:03.988Z,99483.77
2018-06-29T17:35:31.808Z,99481.53
2018-06-29T17:37:59.518Z,99473.69
2018-06-29T17:40:27.234Z,99473.31
2018-06-29T17:42:54.948Z,99477.84
2018-06-29T17:45:22.618Z,99479.09
2018-06-29T17:47:50.307Z,99481.78
2018-06-29T17:50:18.008Z,99469.80
2018-06-29T17:52:45.771Z,99471.71
2018-06-29T17:55:13.466Z,99472.02
2018-06-29T17:57:41.148Z,99477.97
2018-06-29T18:00:09.180Z,99473.25
2018-06-29T18:02:36.806Z,99469.11
2018-06-29T18:05:04.873Z,99479.41
2018-06-29T18:07:32.564Z,99470.58
2018-06-29T18:10:00.230Z,99467.56
2018-06-29T18:12:28.129Z,99472.45
2018-06-29T18:14:55.828Z,99476.91
2018-06-29T18:17:23.517Z,99480.10
2018-06-29T18:19:51.192Z,99476.78
2018-06-29T18:22:18.784Z,99478.09
2018-06-29T18:24:46.445Z,99477.91
2018-06-29T18:27:14.146Z,99476.66
2018-06-29T18:29:42.017Z,99470.02
2018-06-29T18:32:09.701Z,99467.20
2018-06-29T18:34:37.529Z,99467.58
2018-06-29T18:37:05.239Z,99464.09
2018-06-29T18:39:32.931Z,99464.31
2018-06-29T18:42:00.594Z,99463.56
2018-06-29T18:44:28.286Z,99472.22
2018-06-29T18:46:56.048Z,99466.79
2018-06-29T18:49:23.749Z,99467.56
2018-06-29T18:51:51.439Z,99468.47
2018-06-29T18:54:19.140Z,99473.03
2018-06-29T18:56:46.922Z,99468.63
2018-06-29T18:59:14.699Z,99468.69
2018-06-29T19:01:42.358Z,99466.72
2018-06-29T19:04:10.128Z,99474.78
2018-06-29T19:06:37.862Z,99476.09
2018-06-29T19:09:08.824Z,99470.08
2018-06-29T19:11:36.979Z,99476.85
2018-06-29T19:14:05.067Z,99474.55
2018-06-29T19:16:33.062Z,99477.20
2018-06-29T19:19:00.735Z,99472.84
2018-06-29T19:21:28.554Z,99478.75
2018-06-29T19:23:56.284Z,99478.84
2018-06-29T19:26:24.094Z,99484.09
2018-06-29T19:28:52.058Z,99493.73
2018-06-29T19:31:19.927Z,99502.70
2018-06-29T19:33:47.652Z,99513.00
2018-06-29T19:36:15.343Z,99512.58
2018-06-29T19:38:43.072Z,99519.25
2018-06-29T19:41:10.833Z,99527.27
2018-06-29T19:43:38.538Z,99527.83
2018-06-29T19:46:06.268Z,99519.84
2018-06-29T19:48:34.036Z,99528.28
2018-06-29T19:51:01.697Z,99531.06
2018-06-29T19:53:29.495Z,99534.89
2018-06-29T19:55:57.138Z,99544.47
2018-06-29T19:58:24.970Z,99554.59
2018-06-29T20:00:52.689Z,99553.77
2018-06-29T20:03:20.415Z,99562.53
2018-06-29T20:05:48.108Z,99577.81
2018-06-29T20:08:15.917Z,99574.82
2018-06-29T20:10:43.669Z,99588.20
2018-06-29T20:13:11.355Z,99594.36
2018-06-29T20:15:39.150Z,99599.66
2018-06-29T20:18:06.869Z,99606.70
2018-06-29T20:20:34.598Z,99606.05
2018-06-29T20:23:02.427Z,99607.42
2018-06-29T20:25:30.465Z,99615.02
2018-06-29T20:27:58.403Z,99615.20
2018-06-29T20:30:26.079Z,99621.86
2018-06-29T20:32:53.834Z,99618.40
2018-06-29T20:35:21.516Z,99620.47
2018-06-29T20:37:49.211Z,99629.28
2018-06-29T20:40:16.954Z,99632.61
2018-06-29T20:42:44.572Z,99638.16
2018-06-29T20:45:12.348Z,99647.41
2018-06-29T20:47:40.046Z,99652.25
2018-06-29T20:50:07.713Z,99659.14
2018-06-29T20:52:35.592Z,99654.22
2018-06-29T20:55:03.331Z,99657.48
2018-06-29T20:57:31.151Z,99654.41
2018-06-29T20:59:58.919Z,99657.09
2018-06-29T21:02:26.674Z,99662.86
2018-06-29T21:04:54.417Z,99663.14
2018-06-29T21:07:22.165Z,99663.42
2018-06-29T21:09:49.911Z,99665.20
2018-06-29T21:12:17.698Z,99671.73
2018-06-29T21:14:45.423Z,99675.83
2018-06-29T21:17:13.139Z,99678.39
2018-06-29T21:19:40.934Z,99673.94
2018-06-29T21:22:09.090Z,99679.84
2018-06-29T21:24:36.790Z,99685.86
2018-06-29T21:27:04.457Z,99687.70
2018-06-29T21:29:32.140Z,99696.13
2018-06-29T21:31:59.863Z,99705.39
2018-06-29T21:34:27.626Z,99697.63
2018-06-29T21:36:55.354Z,99708.14
2018-06-29T21:41:57.463Z,99721.13
2018-06-29T21:44:25.140Z,99714.69
2018-06-29T21:46:52.929Z,99725.45
2018-06-29T21:49:20.580Z,99725.08
2018-06-29T21:51:48.242Z,99724.63
2018-06-29T21:54:15.969Z,99728.73
2018-06-29T21:56:43.648Z,99733.41
2018-06-29T21:59:11.412Z,99732.50
2018-06-29T22:01:39.072Z,99732.45
2018-06-29T22:04:07.044Z,99733.72
2018-06-29T22:06:34.782Z,99742.30
2018-06-29T22:09:02.670Z,99744.17
2018-06-29T22:11:30.306Z,99748.41
2018-06-29T22:13:57.942Z,99748.98
2018-06-29T22:16:26.274Z,99753.95
2018-06-29T22:18:53.916Z,99754.19
2018-06-29T22:21:21.616Z,99756.84
2018-06-29T22:23:49.269Z,99759.92
2018-06-29T22:26:16.983Z,99755.66
2018-06-29T22:28:44.762Z,99760.09
2018-06-29T22:31:12.518Z,99763.30
2018-06-29T22:33:40.265Z,99762.22
2018-06-29T22:36:08.028Z,99764.75
2018-06-29T22:38:35.728Z,99763.66
2018-06-29T22:41:03.490Z,99763.34
2018-06-29T22:43:31.177Z,99765.03
2018-06-29T22:45:58.817Z,99768.75
2018-06-29T22:48:26.460Z,99761.25
2018-06-29T22:50:54.363Z,99767.95
2018-06-29T22:53:22.063Z,99773.18
2018-06-29T22:55:49.701Z,99771.77
2018-06-29T22:58:17.332Z,99772.78
2018-06-29T23:00:45.052Z,99773.84
2018-06-29T23:03:12.861Z,99773.99
2018-06-29T23:05:40.547Z,99773.99
2018-06-29T23:08:09.919Z,99777.64
2018-06-29T23:10:38.005Z,99774.72
2018-06-29T23:13:06.552Z,99776.11
2018-06-29T23:15:34.237Z,99779.61
2018-06-29T23:18:01.930Z,99778.78
2018-06-29T23:20:29.548Z,99784.23
2018-06-29T23:22:57.099Z,99784.23
2018-06-29T23:25:24.745Z,99793.15
2018-06-29T23:27:52.411Z,99787.48
2018-06-29T23:30:20.068Z,99792.77
2018-06-29T23:32:47.741Z,99793.47
2018-06-29T23:35:15.418Z,99791.06
2018-06-29T23:37:43.135Z,99797.20
2018-06-29T23:40:10.809Z,99797.93
2018-06-29T23:42:38.502Z,99809.30
2018-06-29T23:45:06.462Z,99806.73
2018-06-29T23:47:34.141Z,99798.75
2018-06-29T23:50:01.837Z,99805.14
2018-06-29T23:52:29.602Z,99807.88
2018-06-29T23:54:57.245Z,99805.02
2018-06-29T23:57:24.893Z,99798.15
2018-06-29T23:59:52.467Z,99798.46
